Time;durP1;ratioP1;P1;durP2;ratioP2;P2;SDS_P1;SDS_P2;PMS_P1;PMS_P2;Temp;Humidity;BMP_temperature;BMP_pressure;BME280_temperature;BME280_humidity;BME280_pressure;Samples;Min_cycle;Max_cycle;Signal;HPM_P1;HPM_P2
2021/03/24 00:01:35;;;;;;;;;;;;;;;-1.16;79.29;99728.61;1744618;81;20359;-73
2021/03/24 00:04:03;;;;;;;;;;;;;;;-1.17;79.30;99724.31;1751969;81;20509;-74
2021/03/24 00:06:32;;;;;;;;;;;;;;;-1.16;79.25;99718.25;1730464;81;20464;-73
2021/03/24 00:09:00;;;;;;;;;;;;;;;-1.14;79.25;99718.18;1767365;80;20216;-74
2021/03/24 00:11:29;;;;;;;;;;;;;;;-1.11;79.26;99724.97;1769299;80;22970;-73
2021/03/24 00:13:58;;;;;;;;;;;;;;;-1.09;79.26;99728.34;1779357;80;20233;-74
2021/03/24 00:16:25;;;;;;;;;;;;;;;-1.09;79.29;99733.06;1783793;80;20495;-74
2021/03/24 00:18:53;;;;;;;;;;;;;;;-1.11;79.29;99727.56;1782346;80;20641;-75
2021/03/24 00:21:20;;;;;;;;;;;;;;;-1.11;79.32;99727.11;1762148;81;20241;-74
2021/03/24 00:23:48;;;;;;;;;;;;;;;-1.09;79.33;99733.52;1767581;80;22068;-75
2021/03/24 00:26:15;;;;;;;;;;;;;;;-1.08;79.38;99735.20;1780861;80;20228;-74
2021/03/24 00:28:42;;;;;;;;;;;;;;;-1.11;79.40;99736.19;1784732;80;20245;-74
2021/03/24 00:31:09;;;;;;;;;;;;;;;-1.12;79.41;99726.72;1782437;80;20317;-73
2021/03/24 00:33:37;;;;;;;;;;;;;;;-1.12;79.43;99733.66;1765635;80;20415;-74
2021/03/24 00:36:06;;;;;;;;;;;;;;;-1.13;79.49;99735.41;1773930;79;22071;-74
2021/03/24 00:38:33;;;;;;;;;;;;;;;-1.16;79.49;99734.22;1793379;80;20341;-73
2021/03/24 00:41:01;;;;;;;;;;;;;;;-1.14;79.53;99743.25;1790879;80;20420;-73
2021/03/24 00:43:29;;;;;;;;;;;;;;;-1.12;79.56;99742.27;1780464;80;21035;-71
2021/03/24 00:45:57;;;;;;;;;;;;;;;-1.14;79.61;99734.19;1788306;79;20214;-71
2021/03/24 00:48:29;;;;;;;;;;;;;;;-1.18;79.70;99734.74;1782894;79;21883;-71
2021/03/24 00:50:58;;;;;;;;;;;;;;;-1.22;79.75;99740.52;1767331;81;20279;-71
2021/03/24 00:53:28;;;;;;;;;;;;;;;-1.25;79.82;99733.34;1770369;79;20228;-72
2021/03/24 00:55:56;;;;;;;;;;;;;;;-1.27;79.94;99739.84;1767493;81;20244;-71
2021/03/24 00:58:24;;;;;;;;;;;;;;;-1.30;79.96;99732.67;1767448;81;20216;-71
2021/03/24 01:00:52;;;;;;;;;;;;;;;-1.32;80.07;99739.66;1774988;79;21902;-72
2021/03/24 01:03:21;;;;;;;;;;;;;;;-1.35;80.12;99739.34;1787421;79;20220;-72
2021/03/24 01:05:49;;;;;;;;;;;;;;;-1.35;80.23;99743.66;1791569;79;20295;-72
2021/03/24 01:08:20;;;;;;;;;;;;;;;-1.35;80.30;99741.06;1768479;79;20483;-72
2021/03/24 01:10:48;;;;;;;;;;;;;;;-1.34;80.35;99745.38;1747638;81;20220;-71
2021/03/24 01:13:16;;;;;;;;;;;;;;;-1.35;80.40;99755.31;1758138;80;22832;-72
2021/03/24 01:15:44;;;;;;;;;;;;;;;-1.36;80.44;99747.16;1758510;81;20273;-71
2021/03/24 01:18:13;;;;;;;;;;;;;;;-1.37;80.51;99752.79;1783432;79;20216;-71
2021/03/24 01:20:41;;;;;;;;;;;;;;;-1.36;80.57;99753.17;1790418;79;21377;-71
2021/03/24 01:23:10;;;;;;;;;;;;;;;-1.35;80.57;99759.20;1787221;80;20271;-71
2021/03/24 01:25:38;;;;;;;;;;;;;;;-1.36;80.55;99758.36;1767357;79;22057;-71
2021/03/24 01:28:08;;;;;;;;;;;;;;;-1.34;80.56;99758.32;1759392;80;20391;-72
2021/03/24 01:30:36;;;;;;;;;;;;;;;-1.36;80.54;99764.83;1776380;80;20215;-71
2021/03/24 01:33:04;;;;;;;;;;;;;;;-1.34;80.54;99763.50;1789497;80;20312;-71
2021/03/24 01:35:33;;;;;;;;;;;;;;;-1.38;80.54;99758.04;1761162;80;20241;-73
2021/03/24 01:38:00;;;;;;;;;;;;;;;-1.40;80.55;99768.92;1768261;80;21909;-72
2021/03/24 01:40:32;;;;;;;;;;;;;;;-1.39;80.54;99768.85;1744893;80;21073;-72
2021/03/24 01:43:02;;;;;;;;;;;;;;;-1.39;80.53;99771.44;1764847;80;20241;-74
2021/03/24 01:45:33;;;;;;;;;;;;;;;-1.38;80.50;99761.47;1772923;80;20463;-74
2021/03/24 01:48:01;;;;;;;;;;;;;;;-1.40;80.46;99774.94;1763488;80;20222;-73
2021/03/24 01:50:33;;;;;;;;;;;;;;;-1.43;80.45;99780.25;1754332;81;22059;-73
2021/03/24 01:53:02;;;;;;;;;;;;;;;-1.44;80.48;99782.45;1744210;81;20885;-73
2021/03/24 01:55:30;;;;;;;;;;;;;;;-1.47;80.47;99782.10;1707093;82;20235;-73
2021/03/24 01:57:58;;;;;;;;;;;;;;;-1.47;80.49;99780.81;1737451;82;20727;-73
2021/03/24 02:00:29;;;;;;;;;;;;;;;-1.48;80.50;99788.19;1753018;81;20244;-73
2021/03/24 02:02:56;;;;;;;;;;;;;;;-1.46;80.54;99789.42;1752623;81;23057;-73
2021/03/24 02:05:24;;;;;;;;;;;;;;;-1.47;80.45;99783.39;1764499;81;20718;-74
2021/03/24 02:07:54;;;;;;;;;;;;;;;-1.48;80.47;99793.37;1737993;81;20226;-75
2021/03/24 02:10:38;;;;;;;;;;;;;;;-1.48;80.48;99797.25;1760716;81;20459;-74
2021/03/24 02:13:28;;;;;;;;;;;;;;;-1.48;80.49;99789.48;1753097;81;20220;-73
2021/03/24 02:15:58;;;;;;;;;;;;;;;-1.50;80.48;99800.81;1754254;81;22063;-74
2021/03/24 02:18:26;;;;;;;;;;;;;;;-1.52;80.51;99793.11;1743116;81;21252;-75
2021/03/24 02:20:59;;;;;;;;;;;;;;;-1.51;80.48;99799.13;1737623;81;20266;-75
2021/03/24 02:23:35;;;;;;;;;;;;;;;-1.52;80.53;99804.77;1749155;81;20480;-73
2021/03/24 02:26:09;;;;;;;;;;;;;;;-1.52;80.49;99800.04;1752047;81;20242;-72
2021/03/24 02:28:36;;;;;;;;;;;;;;;-1.52;80.48;99805.22;1733578;81;22075;-72
2021/03/24 02:31:03;;;;;;;;;;;;;;;-1.55;80.42;99798.84;1745172;81;21300;-73
2021/03/24 02:33:32;;;;;;;;;;;;;;;-1.55;80.42;99810.50;1738950;81;20269;-74
2021/03/24 02:36:03;;;;;;;;;;;;;;;-1.55;80.34;99816.52;1746579;81;20475;-74
2021/03/24 02:38:31;;;;;;;;;;;;;;;-1.57;80.30;99811.86;1744135;81;20254;-73
2021/03/24 02:40:59;;;;;;;;;;;;;;;-1.58;80.27;99800.27;1750682;81;22059;-73
2021/03/24 02:43:26;;;;;;;;;;;;;;;-1.60;80.19;99802.92;1755613;80;21644;-75
2021/03/24 02:45:54;;;;;;;;;;;;;;;-1.58;80.20;99820.98;1756607;79;20222;-74
2021/03/24 02:48:24;;;;;;;;;;;;;;;-1.58;80.16;99821.83;1776749;79;20246;-75
2021/03/24 02:50:55;;;;;;;;;;;;;;;-1.57;80.13;99820.08;1770629;79;20230;-73
2021/03/24 02:53:23;;;;;;;;;;;;;;;-1.56;80.08;99824.34;1798818;79;22055;-73
2021/03/24 02:55:50;;;;;;;;;;;;;;;-1.57;80.09;99826.09;1776052;79;20773;-74
2021/03/24 02:58:17;;;;;;;;;;;;;;;-1.55;80.08;99838.98;1768024;79;20216;-73
2021/03/24 03:00:46;;;;;;;;;;;;;;;-1.54;80.10;99826.45;1773344;79;21175;-73
2021/03/24 03:03:16;;;;;;;;;;;;;;;-1.56;80.05;99830.38;1819982;78;20213;-72
2021/03/24 03:05:45;;;;;;;;;;;;;;;-1.56;80.06;99834.70;1777730;79;20307;-73
2021/03/24 03:08:18;;;;;;;;;;;;;;;-1.58;80.05;99836.52;1779908;79;20224;-73
2021/03/24 03:11:01;;;;;;;;;;;;;;;-1.58;80.06;99834.77;1735397;82;20222;-72
2021/03/24 03:13:37;;;;;;;;;;;;;;;-1.58;80.05;99836.52;1746847;81;20569;-72
2021/03/24 03:16:08;;;;;;;;;;;;;;;-1.58;80.05;99841.70;1767253;81;20490;-72
2021/03/24 03:18:44;;;;;;;;;;;;;;;-1.58;80.07;99840.41;1788389;80;20256;-72
2021/03/24 03:21:15;;;;;;;;;;;;;;;-1.57;80.06;99843.38;1797006;79;20250;-72
2021/03/24 03:23:43;;;;;;;;;;;;;;;-1.57;80.03;99840.80;1758811;80;20415;-73
2021/03/24 03:26:13;;;;;;;;;;;;;;;-1.60;80.04;99848.69;1785994;79;20493;-74
2021/03/24 03:28:43;;;;;;;;;;;;;;;-1.61;80.08;99846.55;1767335;81;20220;-73
2021/03/24 03:31:16;;;;;;;;;;;;;;;-1.58;80.11;99857.23;1767985;79;23082;-72
2021/03/24 03:33:45;;;;;;;;;;;;;;;-1.58;80.13;99862.41;1767786;79;20356;-72
2021/03/24 03:36:12;;;;;;;;;;;;;;;-1.58;80.18;99855.94;1769671;79;20278;-73
2021/03/24 03:38:40;;;;;;;;;;;;;;;-1.59;80.23;99857.69;1770950;79;20461;-73
2021/03/24 03:41:08;;;;;;;;;;;;;;;-1.59;80.19;99872.38;1769053;79;20412;-73
2021/03/24 03:43:35;;;;;;;;;;;;;;;-1.60;80.24;99869.41;1755037;81;21976;-73
2021/03/24 03:46:03;;;;;;;;;;;;;;;-1.61;80.25;99869.02;1767198;81;20244;-72
2021/03/24 03:48:30;;;;;;;;;;;;;;;-1.63;80.27;99885.06;1752123;81;20216;-73
2021/03/24 03:51:01;;;;;;;;;;;;;;;-1.63;80.31;99874.70;1713528;82;20385;-73
2021/03/24 03:53:55;;;;;;;;;;;;;;;-1.63;80.29;99882.48;1735075;81;20230;-73
2021/03/24 03:56:29;;;;;;;;;;;;;;;-1.65;80.25;99890.27;1733750;82;22035;-73
2021/03/24 03:59:09;;;;;;;;;;;;;;;-1.62;80.27;99886.75;1746591;81;20244;-71
2021/03/24 04:01:38;;;;;;;;;;;;;;;-1.63;80.26;99885.91;1757639;81;20221;-73
2021/03/24 04:04:12;;;;;;;;;;;;;;;-1.63;80.25;99881.18;1742461;81;20478;-73
2021/03/24 04:06:47;;;;;;;;;;;;;;;-1.63;80.22;99887.66;1734397;82;20429;-72
2021/03/24 04:09:15;;;;;;;;;;;;;;;-1.64;80.20;99895.88;1749925;82;22095;-72
2021/03/24 04:11:47;;;;;;;;;;;;;;;-1.62;80.20;99900.54;1752591;80;20224;-72
2021/03/24 04:14:19;;;;;;;;;;;;;;;-1.60;80.16;99899.19;1753105;80;20432;-72
2021/03/24 04:16:47;;;;;;;;;;;;;;;-1.58;80.17;99907.28;1722119;81;20381;-72
2021/03/24 04:19:17;;;;;;;;;;;;;;;-1.58;80.09;99899.52;1745241;81;20264;-72
2021/03/24 04:21:49;;;;;;;;;;;;;;;-1.56;80.05;99902.88;1747016;82;21892;-72
2021/03/24 04:24:23;;;;;;;;;;;;;;;-1.55;79.99;99910.20;1769852;81;20506;-73
2021/03/24 04:26:52;;;;;;;;;;;;;;;-1.55;79.89;99906.31;1742304;82;20226;-72
2021/03/24 04:29:31;;;;;;;;;;;;;;;-1.55;79.85;99921.40;1764249;81;20470;-72
2021/03/24 04:32:00;;;;;;;;;;;;;;;-1.52;79.80;99913.98;1748293;81;20227;-73
2021/03/24 04:34:28;;;;;;;;;;;;;;;-1.50;79.74;99912.18;1720518;81;22985;-73
2021/03/24 04:37:20;;;;;;;;;;;;;;;-1.47;79.75;99921.97;1741278;81;20673;-73
2021/03/24 04:39:50;;;;;;;;;;;;;;;-1.42;79.67;99925.70;1773434;79;20224;-72
2021/03/24 04:42:20;;;;;;;;;;;;;;;-1.41;79.59;99924.79;1770157;81;20484;-72
2021/03/24 04:44:48;;;;;;;;;;;;;;;-1.40;79.51;99929.06;1750885;81;20226;-72
2021/03/24 04:47:24;;;;;;;;;;;;;;;-1.42;79.47;99934.77;1749032;79;21922;-72
2021/03/24 04:49:55;;;;;;;;;;;;;;;-1.43;79.47;99930.94;1745873;81;21236;-73
2021/03/24 04:52:22;;;;;;;;;;;;;;;-1.46;79.47;99935.30;1773491;81;20391;-72
2021/03/24 04:54:50;;;;;;;;;;;;;;;-1.41;79.51;99939.48;1741787;81;20306;-71
2021/03/24 04:57:20;;;;;;;;;;;;;;;-1.40;79.50;99936.84;1715014;81;20501;-73
2021/03/24 04:59:48;;;;;;;;;;;;;;;-1.40;79.46;99940.72;1749830;81;22078;-72
2021/03/24 05:02:21;;;;;;;;;;;;;;;-1.38;79.45;99943.25;1758797;81;20363;-71
2021/03/24 05:05:12;;;;;;;;;;;;;;;-1.38;79.48;99946.69;1714294;82;20501;-72
2021/03/24 05:07:51;;;;;;;;;;;;;;;-1.37;79.48;99947.52;1762642;80;20359;-71
2021/03/24 05:10:21;;;;;;;;;;;;;;;-1.35;79.46;99944.00;1770773;81;20510;-72
2021/03/24 05:12:50;;;;;;;;;;;;;;;-1.33;79.40;99950.41;1773421;81;22122;-72
2021/03/24 05:15:20;;;;;;;;;;;;;;;-1.34;79.37;99964.27;1773233;81;20756;-73
2021/03/24 05:17:47;;;;;;;;;;;;;;;-1.33;79.34;99948.66;1717888;81;20222;-72
2021/03/24 05:20:18;;;;;;;;;;;;;;;-1.32;79.27;99954.23;1750671;81;20491;-74
2021/03/24 05:22:45;;;;;;;;;;;;;;;-1.31;79.22;99958.52;1743704;80;20270;-73
2021/03/24 05:25:28;;;;;;;;;;;;;;;-1.29;79.17;99963.63;1750647;80;22811;-72
2021/03/24 05:27:58;;;;;;;;;;;;;;;-1.27;79.16;99964.41;1742716;82;20811;-73
2021/03/24 05:30:30;;;;;;;;;;;;;;;-1.27;79.11;99973.03;1742859;81;20242;-72
2021/03/24 05:33:02;;;;;;;;;;;;;;;-1.26;79.13;99970.83;1742688;82;20266;-72
2021/03/24 05:35:45;;;;;;;;;;;;;;;-1.26;79.12;99972.13;1742910;82;20595;-72
2021/03/24 05:38:22;;;;;;;;;;;;;;;-1.28;79.10;99978.27;1743856;79;22034;-72
2021/03/24 05:41:01;;;;;;;;;;;;;;;-1.30;79.08;99979.63;1743083;81;20812;-72
2021/03/24 05:44:05;;;;;;;;;;;;;;;-1.28;79.17;99983.00;1744542;81;20223;-71
2021/03/24 05:47:00;;;;;;;;;;;;;;;-1.25;79.19;99980.77;1753604;81;20309;-72
2021/03/24 05:49:57;;;;;;;;;;;;;;;-1.23;79.21;99978.96;1745313;81;20214;-71
2021/03/24 05:52:31;;;;;;;;;;;;;;;-1.21;79.29;99990.11;1748521;81;21907;-72
2021/03/24 05:55:04;;;;;;;;;;;;;;;-1.18;79.30;99990.83;1756748;81;21253;-73
2021/03/24 05:57:35;;;;;;;;;;;;;;;-1.13;79.33;99987.23;1768399;81;20213;-72
2021/03/24 06:00:17;;;;;;;;;;;;;;;-1.12;79.27;99995.40;1761363;81;20469;-73
2021/03/24 06:03:06;;;;;;;;;;;;;;;-1.09;79.32;99991.39;1749365;81;20494;-73
2021/03/24 06:05:54;;;;;;;;;;;;;;;-1.05;79.31;100000.30;1752836;80;21967;-73
2021/03/24 06:08:40;;;;;;;;;;;;;;;-1.00;79.30;99998.81;1727403;79;20391;-75
2021/03/24 06:11:31;;;;;;;;;;;;;;;-0.98;79.25;100000.44;1752592;81;20239;-72
2021/03/24 06:14:20;;;;;;;;;;;;;;;-0.97;79.28;100006.47;1758181;81;20522;-73
2021/03/24 06:16:56;;;;;;;;;;;;;;;-0.93;79.31;100001.58;1764876;81;20236;-72
2021/03/24 06:19:58;;;;;;;;;;;;;;;-0.87;79.33;100002.62;1773157;81;21899;-72
2021/03/24 06:22:35;;;;;;;;;;;;;;;-0.84;79.27;100014.19;1730399;81;21134;-73
2021/03/24 06:25:18;;;;;;;;;;;;;;;-0.76;79.22;100014.74;1763853;81;20215;-74
2021/03/24 06:27:58;;;;;;;;;;;;;;;-0.71;79.10;100022.33;1751283;81;20299;-73
2021/03/24 06:30:56;;;;;;;;;;;;;;;-0.69;79.00;100027.00;1759087;81;20289;-73
2021/03/24 06:34:00;;;;;;;;;;;;;;;-0.68;78.90;100032.12;1745896;81;22073;-73
2021/03/24 06:37:08;;;;;;;;;;;;;;;-0.67;78.86;100028.66;1742785;81;20320;-74
2021/03/24 06:39:41;;;;;;;;;;;;;;;-0.59;78.83;100040.00;1751242;81;20238;-74
2021/03/24 06:42:38;;;;;;;;;;;;;;;-0.50;78.70;100038.80;1765200;81;20477;-73
2021/03/24 06:45:21;;;;;;;;;;;;;;;-0.47;78.62;100042.14;1742643;82;20405;-72
2021/03/24 06:48:21;;;;;;;;;;;;;;;-0.42;78.40;100047.13;1748924;80;22263;-73
2021/03/24 06:51:11;;;;;;;;;;;;;;;-0.39;78.26;100053.03;1754040;80;20280;-73
2021/03/24 06:54:00;;;;;;;;;;;;;;;-0.34;78.01;100047.67;1747017;80;20222;-72
2021/03/24 06:56:33;;;;;;;;;;;;;;;-0.31;77.80;100048.39;1748962;80;20471;-72
2021/03/24 06:59:22;;;;;;;;;;;;;;;-0.26;77.55;100053.86;1753005;80;20454;-74
2021/03/24 07:01:52;;;;;;;;;;;;;;;-0.23;77.37;100049.38;1711849;80;22951;-72
2021/03/24 07:04:55;;;;;;;;;;;;;;;-0.20;77.16;100051.00;1769309;80;20247;-72
2021/03/24 07:07:29;;;;;;;;;;;;;;;-0.12;77.04;100056.28;1754105;79;20217;-72
2021/03/24 07:10:04;;;;;;;;;;;;;;;0.01;76.94;100060.99;1765996;79;20768;-73
2021/03/24 07:13:14;;;;;;;;;;;;;;;0.14;76.39;100056.52;1877281;76;20209;-73
2021/03/24 07:15:51;;;;;;;;;;;;;;;0.16;76.05;100062.48;1855115;77;20459;-73
2021/03/24 07:18:39;;;;;;;;;;;;;;;0.15;75.32;100066.45;1843273;77;22470;-74
2021/03/24 07:21:10;;;;;;;;;;;;;;;0.14;75.08;100063.46;1841054;77;20356;-75
2021/03/24 07:24:04;;;;;;;;;;;;;;;0.15;74.98;100061.25;1832682;77;20219;-75
2021/03/24 07:26:56;;;;;;;;;;;;;;;0.20;74.73;100069.71;1813125;77;20263;-76
2021/03/24 07:29:30;;;;;;;;;;;;;;;0.23;74.38;100076.91;1846287;77;20269;-75
2021/03/24 07:32:07;;;;;;;;;;;;;;;0.26;74.13;100078.07;1858736;77;22111;-74
2021/03/24 07:35:12;;;;;;;;;;;;;;;0.32;74.07;100080.03;1857112;77;20526;-74
2021/03/24 07:37:57;;;;;;;;;;;;;;;0.39;73.91;100086.67;1850780;77;20271;-73
2021/03/24 07:40:46;;;;;;;;;;;;;;;0.44;73.53;100086.84;1852656;77;21036;-74
2021/03/24 07:43:50;;;;;;;;;;;;;;;0.50;73.47;100095.69;1828025;78;20263;-72
2021/03/24 07:46:36;;;;;;;;;;;;;;;0.57;73.10;100094.95;1795937;80;22064;-76
2021/03/24 07:49:12;;;;;;;;;;;;;;;0.61;72.88;100095.69;1809357;78;20270;-76
2021/03/24 07:52:15;;;;;;;;;;;;;;;0.70;72.73;100101.80;1824891;78;20704;-74
2021/03/24 07:55:07;;;;;;;;;;;;;;;0.79;72.42;100101.40;1758472;81;21227;-74
2021/03/24 07:57:40;;;;;;;;;;;;;;;0.85;72.26;100096.75;1751578;81;20786;-74
2021/03/24 08:00:35;;;;;;;;;;;;;;;0.92;71.76;100113.39;1728153;82;21288;-75
2021/03/24 08:03:09;;;;;;;;;;;;;;;1.00;71.54;100106.11;1731154;82;20394;-76
2021/03/24 08:05:59;;;;;;;;;;;;;;;1.15;71.38;100117.95;1770176;78;20232;-75
2021/03/24 08:08:47;;;;;;;;;;;;;;;1.31;70.97;100119.88;1772552;79;20266;-76
2021/03/24 08:11:38;;;;;;;;;;;;;;;1.37;70.36;100117.84;1692711;81;20242;-75
2021/03/24 08:14:40;;;;;;;;;;;;;;;1.41;70.39;100128.48;1745388;81;21060;-76
2021/03/24 08:17:15;;;;;;;;;;;;;;;1.52;70.18;100127.99;1746978;80;20349;-76
2021/03/24 08:19:52;;;;;;;;;;;;;;;1.57;69.59;100131.25;1749910;80;20289;-75
2021/03/24 08:22:43;;;;;;;;;;;;;;;1.55;69.26;100144.80;1748413;81;20239;-74
2021/03/24 08:25:23;;;;;;;;;;;;;;;1.57;69.23;100145.56;1755352;79;20575;-77
2021/03/24 08:28:07;;;;;;;;;;;;;;;1.61;68.91;100154.06;1750768;80;20337;-76
2021/03/24 08:30:50;;;;;;;;;;;;;;;1.63;68.45;100156.13;1760440;81;20377;-76
2021/03/24 08:33:39;;;;;;;;;;;;;;;1.63;68.66;100150.92;1744778;79;20220;-79
2021/03/24 08:36:45;;;;;;;;;;;;;;;1.69;68.46;100154.56;1763144;81;20977;-74
2021/03/24 08:39:44;;;;;;;;;;;;;;;1.71;68.08;100160.53;1744265;81;20233;-75
2021/03/24 08:42:35;;;;;;;;;;;;;;;1.76;67.94;100162.94;1722153;82;21968;-78
2021/03/24 08:45:26;;;;;;;;;;;;;;;1.77;67.91;100160.26;1735896;81;20242;-74
2021/03/24 08:47:58;;;;;;;;;;;;;;;1.81;67.58;100151.38;1745892;81;20504;-74
2021/03/24 08:50:29;;;;;;;;;;;;;;;1.85;67.42;100156.84;1754420;81;20292;-73
2021/03/24 08:53:18;;;;;;;;;;;;;;;1.86;67.27;100160.29;1758140;80;20219;-76
2021/03/24 08:56:01;;;;;;;;;;;;;;;1.89;67.65;100151.02;1770013;80;22130;-73
2021/03/24 08:58:32;;;;;;;;;;;;;;;1.92;67.56;100146.95;1762183;81;21356;-72
2021/03/24 09:01:21;;;;;;;;;;;;;;;1.89;67.29;100155.77;1732894;81;20240;-72
2021/03/24 09:04:24;;;;;;;;;;;;;;;1.89;67.38;100150.56;1755476;79;21170;-74
2021/03/24 09:06:58;;;;;;;;;;;;;;;1.90;67.54;100147.03;1765681;79;20277;-73
2021/03/24 09:09:33;;;;;;;;;;;;;;;1.96;67.07;100152.42;1740879;79;23042;-74
2021/03/24 09:12:18;;;;;;;;;;;;;;;2.03;67.25;100148.63;1780717;79;20268;-74
2021/03/24 09:15:07;;;;;;;;;;;;;;;2.18;67.16;100145.27;1783025;79;20234;-74
2021/03/24 09:17:56;;;;;;;;;;;;;;;2.31;66.48;100144.19;1742804;79;20231;-75
2021/03/24 09:20:41;;;;;;;;;;;;;;;2.41;66.35;100151.09;1744812;79;20249;-74
2021/03/24 09:23:34;;;;;;;;;;;;;;;2.58;66.34;100145.90;1774791;79;21903;-75
2021/03/24 09:26:42;;;;;;;;;;;;;;;2.74;65.73;100158.56;1753147;81;20826;-74
2021/03/24 09:29:27;;;;;;;;;;;;;;;2.83;65.22;100159.86;1735794;81;20259;-74
2021/03/24 09:32:18;;;;;;;;;;;;;;;2.94;64.13;100160.15;1765450;81;20327;-74
2021/03/24 09:35:05;;;;;;;;;;;;;;;2.95;63.55;100158.38;1764834;81;20212;-74
2021/03/24 09:37:39;;;;;;;;;;;;;;;2.96;63.27;100170.04;1752518;79;20495;-74
2021/03/24 09:40:12;;;;;;;;;;;;;;;2.96;63.21;100162.67;1739627;81;21286;-73
2021/03/24 09:42:48;;;;;;;;;;;;;;;2.99;62.76;100156.86;1752028;79;20216;-74
2021/03/24 09:45:21;;;;;;;;;;;;;;;3.03;62.76;100160.98;1725499;81;20241;-76
2021/03/24 09:47:55;;;;;;;;;;;;;;;3.04;62.98;100163.13;1770065;79;20231;-75
2021/03/24 09:50:31;;;;;;;;;;;;;;;3.09;62.81;100163.28;1737722;80;20406;-77
2021/03/24 09:53:20;;;;;;;;;;;;;;;3.08;62.60;100157.66;1751038;79;20327;-73
2021/03/24 09:55:58;;;;;;;;;;;;;;;3.12;62.74;100147.92;1754673;81;20282;-75
2021/03/24 09:58:29;;;;;;;;;;;;;;;3.16;61.82;100150.73;1750817;79;20268;-74
2021/03/24 10:01:24;;;;;;;;;;;;;;;3.22;61.56;100143.06;1778414;79;20269;-75
2021/03/24 10:04:11;;;;;;;;;;;;;;;3.26;61.46;100144.11;1798895;79;22855;-76
2021/03/24 10:06:48;;;;;;;;;;;;;;;3.34;60.74;100145.02;1743340;79;20382;-73
2021/03/24 10:09:39;;;;;;;;;;;;;;;3.37;60.79;100148.30;1788108;78;20275;-73
2021/03/24 10:12:33;;;;;;;;;;;;;;;3.45;61.05;100146.59;1775719;79;20228;-75
2021/03/24 10:15:08;;;;;;;;;;;;;;;3.59;61.13;100145.40;1753211;81;20302;-74
2021/03/24 10:17:51;;;;;;;;;;;;;;;3.71;59.92;100147.80;1777581;79;21907;-73
2021/03/24 10:20:27;;;;;;;;;;;;;;;3.79;59.60;100143.00;1772560;79;20408;-74
2021/03/24 10:23:10;;;;;;;;;;;;;;;3.97;59.64;100136.76;1762348;79;20216;-72
2021/03/24 10:25:44;;;;;;;;;;;;;;;4.15;58.47;100145.34;1764516;79;22337;-75
2021/03/24 10:28:24;;;;;;;;;;;;;;;4.42;58.76;100128.98;1755823;81;20787;-74
2021/03/24 10:30:57;;;;;;;;;;;;;;;4.78;59.27;100121.59;1742670;81;22070;-73
2021/03/24 10:33:45;;;;;;;;;;;;;;;5.11;57.30;100126.57;1726104;81;20680;-72
2021/03/24 10:36:26;;;;;;;;;;;;;;;5.34;57.37;100125.19;1784615;79;20784;-77
2021/03/24 10:39:29;;;;;;;;;;;;;;;5.64;56.45;100119.81;1727234;81;20329;-77
2021/03/24 10:42:10;;;;;;;;;;;;;;;5.83;54.98;100113.41;1790359;80;20297;-76
2021/03/24 10:44:46;;;;;;;;;;;;;;;6.05;55.87;100113.73;1765740;80;21741;-74
2021/03/24 10:47:22;;;;;;;;;;;;;;;6.33;56.01;100107.52;1739441;80;21198;-74
2021/03/24 10:50:10;;;;;;;;;;;;;;;6.47;54.85;100111.87;1748026;81;20735;-75
2021/03/24 10:53:02;;;;;;;;;;;;;;;6.56;54.48;100099.42;1767653;79;20220;-75
2021/03/24 10:55:30;;;;;;;;;;;;;;;6.53;53.62;100106.20;1784070;78;21017;-73
2021/03/24 10:58:14;;;;;;;;;;;;;;;6.43;52.36;100107.75;1778809;80;22440;-75
2021/03/24 11:00:44;;;;;;;;;;;;;;;6.19;51.14;100107.12;1754344;81;20379;-75
2021/03/24 11:03:23;;;;;;;;;;;;;;;5.87;50.57;100117.02;1764554;80;20229;-76
2021/03/24 11:06:06;;;;;;;;;;;;;;;5.55;51.02;100105.13;1775234;80;21127;-71
2021/03/24 11:09:02;;;;;;;;;;;;;;;5.41;52.10;100113.88;1760572;80;20269;-73
2021/03/24 11:11:48;;;;;;;;;;;;;;;5.50;52.43;100107.19;1764923;79;21955;-74
2021/03/24 11:14:24;;;;;;;;;;;;;;;5.64;53.00;100108.02;1758781;79;20404;-72
2021/03/24 11:16:59;;;;;;;;;;;;;;;5.73;52.24;100113.15;1768417;81;20439;-72
2021/03/24 11:19:33;;;;;;;;;;;;;;;5.69;51.77;100107.71;1755588;81;20734;-72
2021/03/24 11:22:16;;;;;;;;;;;;;;;5.64;52.85;100101.47;1767125;81;20263;-71
2021/03/24 11:24:53;;;;;;;;;;;;;;;5.70;52.85;100112.04;1767627;79;22504;-71
2021/03/24 11:27:24;;;;;;;;;;;;;;;5.84;53.38;100104.13;1763912;79;20445;-72
2021/03/24 11:29:58;;;;;;;;;;;;;;;6.02;53.99;100106.91;1758588;79;20267;-72
2021/03/24 11:32:35;;;;;;;;;;;;;;;6.11;52.51;100105.47;1724729;82;20277;-73
2021/03/24 11:35:15;;;;;;;;;;;;;;;6.02;51.56;100101.67;1722303;81;20280;-72
2021/03/24 11:37:49;;;;;;;;;;;;;;;5.92;52.12;100111.53;1725083;81;21913;-74
2021/03/24 11:40:37;;;;;;;;;;;;;;;5.96;52.12;100106.45;1724727;81;20407;-72
2021/03/24 11:43:07;;;;;;;;;;;;;;;6.01;52.39;100101.30;1726721;81;20339;-75
2021/03/24 11:45:36;;;;;;;;;;;;;;;6.13;52.75;100106.20;1721485;81;20563;-74
2021/03/24 11:48:13;;;;;;;;;;;;;;;6.20;52.61;100107.50;1724479;81;20252;-74
2021/03/24 11:51:04;;;;;;;;;;;;;;;6.21;52.80;100105.72;1724406;82;21213;-72
2021/03/24 11:54:06;;;;;;;;;;;;;;;6.06;52.24;100110.16;1730001;81;21039;-73
2021/03/24 11:57:00;;;;;;;;;;;;;;;5.84;52.16;100109.84;1735947;82;20318;-72
2021/03/24 11:59:49;;;;;;;;;;;;;;;5.62;52.82;100111.21;1726135;81;20234;-72
2021/03/24 12:02:40;;;;;;;;;;;;;;;5.52;53.00;100119.28;1751717;79;20246;-74
2021/03/24 12:05:20;;;;;;;;;;;;;;;5.53;53.51;100120.95;1742635;81;21883;-73
2021/03/24 12:08:19;;;;;;;;;;;;;;;5.50;52.66;100121.59;1691696;82;20385;-73
2021/03/24 12:11:23;;;;;;;;;;;;;;;5.21;52.41;100128.20;1710462;82;21243;-73
2021/03/24 12:14:16;;;;;;;;;;;;;;;4.98;53.15;100121.72;1729125;80;20475;-72
2021/03/24 12:16:53;;;;;;;;;;;;;;;4.86;53.07;100128.53;1746164;80;20237;-73
2021/03/24 12:19:34;;;;;;;;;;;;;;;4.87;53.60;100128.91;1747833;81;21077;-73
2021/03/24 12:22:08;;;;;;;;;;;;;;;5.12;54.16;100129.59;1761965;79;20570;-73
2021/03/24 12:24:38;;;;;;;;;;;;;;;5.50;53.19;100129.02;1757055;80;20271;-72
2021/03/24 12:27:15;;;;;;;;;;;;;;;5.77;53.47;100113.31;1772397;79;21438;-73
2021/03/24 12:29:44;;;;;;;;;;;;;;;5.99;52.49;100122.01;1772571;80;20224;-74
2021/03/24 12:32:22;;;;;;;;;;;;;;;6.07;51.41;100121.02;1761204;80;22436;-74
2021/03/24 12:34:50;;;;;;;;;;;;;;;6.05;52.01;100117.66;1770980;80;20386;-73
2021/03/24 12:37:27;;;;;;;;;;;;;;;6.09;52.13;100116.54;1779990;80;20296;-74
2021/03/24 12:39:56;;;;;;;;;;;;;;;6.03;51.64;100110.38;1779258;80;20470;-74
2021/03/24 12:42:27;;;;;;;;;;;;;;;5.89;51.60;100111.71;1774965;80;20266;-74
2021/03/24 12:44:55;;;;;;;;;;;;;;;5.71;52.02;100113.72;1785656;80;22149;-75
2021/03/24 12:47:38;;;;;;;;;;;;;;;5.53;52.14;100123.58;1767599;80;20825;-73
2021/03/24 12:50:15;;;;;;;;;;;;;;;5.29;52.66;100117.22;1777990;80;20322;-74
2021/03/24 12:53:04;;;;;;;;;;;;;;;5.15;53.00;100122.02;1776389;80;20541;-74
2021/03/24 12:55:31;;;;;;;;;;;;;;;5.03;53.31;100119.67;1743963;80;20677;-74
2021/03/24 12:58:02;;;;;;;;;;;;;;;4.99;52.96;100119.94;1777816;80;22599;-74
2021/03/24 13:00:51;;;;;;;;;;;;;;;4.97;53.24;100121.34;1762841;80;21277;-74
2021/03/24 13:03:25;;;;;;;;;;;;;;;4.98;52.61;100113.86;1768538;80;20224;-73
2021/03/24 13:06:12;;;;;;;;;;;;;;;4.96;52.90;100116.20;1769722;80;21012;-73
2021/03/24 13:08:56;;;;;;;;;;;;;;;4.98;53.29;100116.95;1760480;80;20397;-74
2021/03/24 13:11:36;;;;;;;;;;;;;;;5.04;53.80;100119.20;1776592;80;21960;-73
2021/03/24 13:14:19;;;;;;;;;;;;;;;5.10;53.51;100120.96;1759878;80;20233;-74
2021/03/24 13:17:00;;;;;;;;;;;;;;;5.11;52.75;100119.19;1757464;80;20280;-76
2021/03/24 13:19:43;;;;;;;;;;;;;;;5.06;52.88;100123.88;1764734;80;20305;-75
2021/03/24 13:22:56;;;;;;;;;;;;;;;5.05;52.30;100119.58;1880847;76;20211;-74
2021/03/24 13:25:34;;;;;;;;;;;;;;;4.97;51.94;100114.80;1838932;77;20563;-75
2021/03/24 13:28:26;;;;;;;;;;;;;;;4.95;51.74;100124.53;1850449;77;21179;-73
2021/03/24 13:31:04;;;;;;;;;;;;;;;4.90;51.92;100125.25;1837858;77;20432;-75
2021/03/24 13:33:42;;;;;;;;;;;;;;;4.82;52.07;100122.25;1834179;77;20297;-74
2021/03/24 13:36:18;;;;;;;;;;;;;;;4.72;51.98;100131.11;1837201;77;20222;-74
2021/03/24 13:38:52;;;;;;;;;;;;;;;4.65;52.41;100118.51;1825391;77;20462;-75
2021/03/24 13:41:19;;;;;;;;;;;;;;;4.58;52.20;100125.39;1843775;77;22500;-74